Time;durP1;ratioP1;P1;durP2;ratioP2;P2;SDS_P1;SDS_P2;PMS_P1;PMS_P2;Temp;Humidity;BMP_temperature;BMP_pressure;BME280_temperature;BME280_humidity;BME280_pressure;Samples;Min_cycle;Max_cycle;Signal;HPM_P1;HPM_P2
2022/06/13 00:00:00;;;;;;;0.00;0.00;;;21.90;93.00;;;;;;4934228;29;20227;-72
2022/06/13 00:02:26;;;;;;;0.00;0.00;;;21.80;92.40;;;;;;4926972;29;20322;-73
2022/06/13 00:04:52;;;;;;;0.00;0.00;;;21.90;92.80;;;;;;4947059;29;20068;-72
2022/06/13 00:07:18;;;;;;;0.00;0.00;;;21.80;92.80;;;;;;4951038;29;20086;-79
2022/06/13 00:09:43;;;;;;;0.00;0.00;;;21.80;92.20;;;;;;4946697;29;20023;-73
2022/06/13 00:12:10;;;;;;;0.00;0.00;;;21.80;91.80;;;;;;4932266;29;20055;-72
2022/06/13 00:14:36;;;;;;;0.00;0.00;;;21.80;92.80;;;;;;4929610;29;20063;-73
2022/06/13 00:17:02;;;;;;;0.00;0.00;;;21.70;92.80;;;;;;4946465;29;20024;-72
2022/06/13 00:19:27;;;;;;;0.00;0.00;;;21.70;93.10;;;;;;4933371;29;20115;-73
2022/06/13 00:21:53;;;;;;;0.00;0.00;;;21.60;92.90;;;;;;4953351;29;20082;-76
2022/06/13 00:24:19;;;;;;;0.00;0.00;;;21.60;92.70;;;;;;4929658;29;20046;-74
2022/06/13 00:26:44;;;;;;;0.00;0.00;;;21.50;92.70;;;;;;4943987;29;20027;-75
2022/06/13 00:29:10;;;;;;;0.00;0.00;;;21.50;92.70;;;;;;4953371;29;20224;-73
2022/06/13 00:31:36;;;;;;;0.00;0.00;;;21.50;92.80;;;;;;4941494;29;20031;-75
2022/06/13 00:34:01;;;;;;;0.00;0.00;;;21.40;92.70;;;;;;4929478;29;20023;-73
2022/06/13 00:36:27;;;;;;;0.00;0.00;;;21.40;92.80;;;;;;4944131;29;20033;-73
2022/06/13 00:38:55;;;;;;;0.00;0.00;;;21.40;93.40;;;;;;4944731;29;20322;-75
2022/06/13 00:41:25;;;;;;;0.00;0.00;;;21.40;93.20;;;;;;4944649;29;20035;-73
2022/06/13 00:43:51;;;;;;;0.00;0.00;;;21.30;93.20;;;;;;4947072;29;20349;-72
2022/06/13 00:46:47;;;;;;;0.00;0.00;;;21.30;93.10;;;;;;4949627;29;20090;-73
2022/06/13 00:49:18;;;;;;;0.00;0.00;;;21.20;93.30;;;;;;4915888;29;20027;-73
2022/06/13 00:51:48;;;;;;;0.00;0.00;;;21.20;93.50;;;;;;4930241;29;20368;-72
2022/06/13 00:54:17;;;;;;;0.00;0.00;;;21.20;94.00;;;;;;4944510;29;20027;-72
2022/06/13 00:56:44;;;;;;;0.00;0.00;;;21.20;94.30;;;;;;4949339;29;20310;-73
2022/06/13 00:59:13;;;;;;;0.00;0.00;;;21.10;94.40;;;;;;4951041;29;20188;-74
2022/06/13 01:01:39;;;;;;;0.00;0.00;;;21.10;94.60;;;;;;4927926;29;20067;-78
2022/06/13 01:04:07;;;;;;;0.00;0.00;;;21.10;94.90;;;;;;4944586;29;20048;-73
2022/06/13 01:06:35;;;;;;;0.00;0.00;;;21.10;94.90;;;;;;4947335;29;20374;-73
2022/06/13 01:09:03;;;;;;;0.00;0.00;;;21.00;94.80;;;;;;4946638;29;20301;-76
2022/06/13 01:11:29;;;;;;;0.00;0.00;;;21.00;95.20;;;;;;4927234;29;20035;-74
2022/06/13 01:14:16;;;;;;;0.00;0.00;;;21.00;94.50;;;;;;4947684;29;20078;-74
2022/06/13 01:16:48;;;;;;;0.00;0.00;;;21.00;94.70;;;;;;4947560;29;20034;-74
2022/06/13 01:19:32;;;;;;;0.00;0.00;;;21.00;95.30;;;;;;4939933;29;20065;-73
2022/06/13 01:22:45;;;;;;;0.00;0.00;;;20.90;95.70;;;;;;4941199;29;20044;-72
2022/06/13 01:25:36;;;;;;;0.00;0.00;;;20.90;95.80;;;;;;4918478;29;20102;-73
2022/06/13 01:28:35;;;;;;;0.00;0.00;;;20.80;95.90;;;;;;4944469;29;20019;-73
2022/06/13 01:31:27;;;;;;;0.00;0.00;;;20.80;95.80;;;;;;4944262;29;20027;-72
2022/06/13 01:34:05;;;;;;;0.00;0.00;;;20.80;95.70;;;;;;4939772;29;20067;-76
2022/06/13 01:37:06;;;;;;;0.00;0.00;;;20.70;95.70;;;;;;4943562;29;20031;-72
2022/06/13 01:39:50;;;;;;;0.00;0.00;;;20.70;95.50;;;;;;4942159;29;20031;-72
2022/06/13 01:42:35;;;;;;;0.00;0.00;;;20.70;95.90;;;;;;4943164;29;20204;-72
2022/06/13 01:45:18;;;;;;;0.00;0.00;;;20.70;96.40;;;;;;4942039;29;20195;-72
2022/06/13 01:47:51;;;;;;;0.00;0.00;;;20.70;96.80;;;;;;4941072;29;20083;-76
2022/06/13 01:50:30;;;;;;;0.00;0.00;;;20.60;96.80;;;;;;4945328;29;20306;-75
2022/06/13 01:53:14;;;;;;;0.00;0.00;;;20.60;96.60;;;;;;4948891;29;20123;-78
2022/06/13 01:55:50;;;;;;;0.00;0.00;;;20.60;96.10;;;;;;4925848;29;20376;-73
2022/06/13 01:58:27;;;;;;;0.00;0.00;;;20.60;96.90;;;;;;4947414;29;20030;-73
2022/06/13 02:01:37;;;;;;;0.00;0.00;;;20.50;97.20;;;;;;4945151;29;20281;-77
2022/06/13 02:04:28;;;;;;;0.00;0.00;;;20.50;97.00;;;;;;4860308;29;20085;-77
2022/06/13 02:07:24;;;;;;;0.00;0.00;;;20.50;97.40;;;;;;4942772;29;20219;-72
2022/06/13 02:10:04;;;;;;;0.00;0.00;;;20.40;97.40;;;;;;4947159;29;20194;-73
2022/06/13 02:12:34;;;;;;;0.00;0.00;;;20.40;97.70;;;;;;4952842;29;20050;-73
2022/06/13 02:15:08;;;;;;;0.00;0.00;;;20.40;97.70;;;;;;4939895;29;20306;-78
2022/06/13 02:17:41;;;;;;;0.00;0.00;;;20.40;97.80;;;;;;4942909;29;20028;-73
2022/06/13 02:20:20;;;;;;;0.00;0.00;;;20.30;98.00;;;;;;4938241;29;20027;-73
2022/06/13 02:22:50;;;;;;;0.00;0.00;;;20.30;98.00;;;;;;4923894;29;20290;-73
2022/06/13 02:25:21;;;;;;;0.00;0.00;;;20.30;98.40;;;;;;4943959;29;20050;-73
2022/06/13 02:27:54;;;;;;;0.00;0.00;;;20.30;98.60;;;;;;4945293;29;20028;-72
2022/06/13 02:30:22;;;;;;;0.00;0.00;;;20.20;98.80;;;;;;4943869;29;20024;-72
2022/06/13 02:33:07;;;;;;;0.00;0.00;;;20.20;98.60;;;;;;4945336;29;20032;-71
2022/06/13 02:35:39;;;;;;;0.00;0.00;;;20.20;98.60;;;;;;4942351;29;20260;-72
2022/06/13 02:38:31;;;;;;;0.00;0.00;;;20.20;98.60;;;;;;4943722;28;20020;-72
2022/06/13 02:41:10;;;;;;;0.00;0.00;;;20.10;99.30;;;;;;4945963;29;20031;-72
2022/06/13 02:43:52;;;;;;;0.00;0.00;;;20.10;99.00;;;;;;4942229;29;20043;-72
2022/06/13 02:46:29;;;;;;;0.00;0.00;;;20.10;99.20;;;;;;4941365;29;20788;-72
2022/06/13 02:49:00;;;;;;;0.00;0.00;;;20.10;99.10;;;;;;4941381;29;20051;-72
2022/06/13 02:51:42;;;;;;;0.00;0.00;;;20.10;99.30;;;;;;4944277;29;20023;-72
2022/06/13 02:54:13;;;;;;;0.00;0.00;;;20.00;98.60;;;;;;4937310;29;20210;-74
2022/06/13 02:57:27;;;;;;;0.00;0.00;;;20.00;98.60;;;;;;4944150;29;20055;-73
2022/06/13 03:00:11;;;;;;;0.00;0.00;;;20.00;99.30;;;;;;4944659;29;20035;-74
2022/06/13 03:03:07;;;;;;;0.00;0.00;;;20.00;99.60;;;;;;4951049;29;20357;-73
2022/06/13 03:05:43;;;;;;;0.00;0.00;;;20.00;99.90;;;;;;4931505;29;20327;-74
2022/06/13 03:08:20;;;;;;;0.00;0.00;;;20.00;99.90;;;;;;4950818;29;20259;-78
2022/06/13 03:11:00;;;;;;;0.00;0.00;;;19.90;99.90;;;;;;4936805;29;20027;-73
2022/06/13 03:13:52;;;;;;;0.00;0.00;;;19.90;99.80;;;;;;4947190;28;20031;-73
2022/06/13 03:16:29;;;;;;;0.00;0.00;;;19.80;99.80;;;;;;4930391;29;20087;-74
2022/06/13 03:19:08;;;;;;;0.00;0.00;;;19.80;99.80;;;;;;4929189;29;20028;-74
2022/06/13 03:21:39;;;;;;;0.00;0.00;;;19.70;99.60;;;;;;4942087;29;20066;-73
2022/06/13 03:24:19;;;;;;;0.00;0.00;;;19.70;99.60;;;;;;4946827;29;20306;-74
2022/06/13 03:26:59;;;;;;;0.00;0.00;;;19.70;99.90;;;;;;4947228;29;20023;-73
2022/06/13 03:29:31;;;;;;;0.00;0.00;;;19.70;99.90;;;;;;4949300;28;20431;-73
2022/06/13 03:32:12;;;;;;;0.00;0.00;;;19.70;99.90;;;;;;4949935;28;20306;-75
2022/06/13 03:34:42;;;;;;;0.00;0.00;;;19.60;99.90;;;;;;4947807;28;20035;-72
2022/06/13 03:37:16;;;;;;;0.00;0.00;;;19.60;99.90;;;;;;4943905;29;20031;-72
2022/06/13 03:39:57;;;;;;;0.00;0.00;;;19.60;99.90;;;;;;4946478;29;20023;-75
2022/06/13 03:42:38;;;;;;;0.00;0.00;;;19.60;99.90;;;;;;4948055;29;20041;-76
2022/06/13 03:45:07;;;;;;;0.00;0.00;;;19.60;99.90;;;;;;4946299;28;20020;-72
2022/06/13 03:47:59;;;;;;;0.00;0.00;;;19.60;99.90;;;;;;4929538;29;20050;-73
2022/06/13 03:50:41;;;;;;;0.00;0.00;;;19.60;99.90;;;;;;4923616;29;20323;-73
2022/06/13 03:53:27;;;;;;;0.00;0.00;;;19.50;99.90;;;;;;4930533;29;20051;-74
2022/06/13 03:56:07;;;;;;;0.00;0.00;;;19.50;99.90;;;;;;4947390;29;20020;-73
2022/06/13 03:58:46;;;;;;;0.00;0.00;;;19.60;99.90;;;;;;4952024;29;20333;-74
2022/06/13 04:01:14;;;;;;;;;;;19.60;99.90;;;;;;4942222;29;20027;-73
2022/06/13 04:03:40;;;;;;;0.00;0.00;;;19.60;99.90;;;;;;4931696;29;20181;-74
2022/06/13 04:06:39;;;;;;;0.00;0.00;;;19.60;99.90;;;;;;4931126;29;20031;-72
2022/06/13 04:09:19;;;;;;;0.00;0.00;;;19.60;99.90;;;;;;4950687;29;20032;-73
2022/06/13 04:11:56;;;;;;;0.00;0.00;;;19.60;99.90;;;;;;4944853;29;20038;-73
2022/06/13 04:14:36;;;;;;;0.00;0.00;;;19.70;99.90;;;;;;4946874;29;20324;-78
2022/06/13 04:17:04;;;;;;;0.00;0.00;;;19.70;99.90;;;;;;4938200;29;20339;-73
2022/06/13 04:19:56;;;;;;;0.00;0.00;;;19.70;99.90;;;;;;4948657;29;20107;-75
2022/06/13 04:22:53;;;;;;;0.00;0.00;;;19.70;99.90;;;;;;4942264;29;20046;-77
2022/06/13 04:25:33;;;;;;;0.00;0.00;;;19.70;99.90;;;;;;4938566;29;20032;-76
2022/06/13 04:28:07;;;;;;;0.00;0.00;;;19.80;99.90;;;;;;4947881;29;20019;-73
2022/06/13 04:30:35;;;;;;;0.00;0.00;;;19.80;99.90;;;;;;4947701;29;20024;-73
2022/06/13 04:33:10;;;;;;;0.00;0.00;;;19.80;99.90;;;;;;4943671;29;20162;-72
2022/06/13 04:35:37;;;;;;;0.00;0.00;;;19.80;99.90;;;;;;4946573;29;20127;-72
2022/06/13 04:38:07;;;;;;;0.00;0.00;;;19.80;99.90;;;;;;4926888;29;20347;-72
2022/06/13 04:40:37;;;;;;;0.00;0.00;;;19.90;99.90;;;;;;4943855;29;20047;-72
2022/06/13 04:43:11;;;;;;;0.00;0.00;;;19.90;99.90;;;;;;4944817;29;20027;-72
2022/06/13 04:45:51;;;;;;;0.00;0.00;;;19.90;99.90;;;;;;4948934;29;20024;-72
2022/06/13 04:48:17;;;;;;;0.00;0.00;;;20.00;99.90;;;;;;4944978;29;20033;-72
2022/06/13 04:50:48;;;;;;;0.00;0.00;;;20.00;99.90;;;;;;4947583;29;20051;-73
2022/06/13 04:53:52;;;;;;;0.00;0.00;;;20.10;99.90;;;;;;4950189;29;20031;-73
2022/06/13 04:56:20;;;;;;;0.00;0.00;;;20.20;99.90;;;;;;4933902;29;20251;-78
2022/06/13 04:58:47;;;;;;;0.00;0.00;;;20.20;99.90;;;;;;4950896;29;20096;-72
2022/06/13 05:01:40;;;;;;;0.00;0.00;;;20.20;99.90;;;;;;4950716;29;20032;-72
2022/06/13 05:04:09;;;;;;;0.00;0.00;;;20.20;99.90;;;;;;4939029;29;20047;-74
2022/06/13 05:07:10;;;;;;;0.00;0.00;;;20.20;99.90;;;;;;4947333;29;20034;-72
2022/06/13 05:09:40;;;;;;;0.00;0.00;;;20.20;99.90;;;;;;4930486;29;20023;-77
2022/06/13 05:12:24;;;;;;;0.00;0.00;;;20.30;99.90;;;;;;4926165;29;20027;-74
2022/06/13 05:14:52;;;;;;;0.00;0.00;;;20.30;99.90;;;;;;4925304;29;20031;-73
2022/06/13 05:17:39;;;;;;;0.00;0.00;;;20.30;99.90;;;;;;4944286;29;20272;-79
2022/06/13 05:20:39;;;;;;;0.00;0.00;;;20.30;99.90;;;;;;4945577;29;20061;-72
2022/06/13 05:23:17;;;;;;;0.00;0.00;;;20.30;99.90;;;;;;4944708;29;20099;-72
2022/06/13 05:25:46;;;;;;;0.00;0.00;;;20.30;99.90;;;;;;4944249;29;20218;-73
2022/06/13 05:28:18;;;;;;;0.00;0.00;;;20.20;99.90;;;;;;4949430;29;20062;-73
2022/06/13 05:30:47;;;;;;;0.00;0.00;;;20.00;99.90;;;;;;4947032;28;20012;-72
2022/06/13 05:33:14;;;;;;;0.00;0.00;;;20.00;99.90;;;;;;4943057;29;20035;-78
2022/06/13 05:35:44;;;;;;;0.00;0.00;;;20.00;99.90;;;;;;4926292;29;20042;-78
2022/06/13 05:38:23;;;;;;;0.00;0.00;;;20.10;99.90;;;;;;4944644;29;20028;-74
2022/06/13 05:40:49;;;;;;;0.00;0.00;;;20.10;99.90;;;;;;4946511;29;20090;-73
2022/06/13 05:43:16;;;;;;;0.00;0.00;;;20.20;99.90;;;;;;4949128;29;20039;-73
2022/06/13 05:45:42;;;;;;;0.00;0.00;;;20.20;99.90;;;;;;4946988;29;20095;-72
2022/06/13 05:48:14;;;;;;;0.00;0.00;;;20.20;99.30;;;;;;4936641;29;20039;-73
2022/06/13 05:50:40;;;;;;;0.00;0.00;;;20.20;98.80;;;;;;4943353;29;20032;-76
2022/06/13 05:53:06;;;;;;;0.00;0.00;;;20.30;98.80;;;;;;4944561;29;20148;-73
2022/06/13 05:55:32;;;;;;;0.00;0.00;;;20.40;98.50;;;;;;4947945;29;20071;-74
2022/06/13 05:57:58;;;;;;;0.00;0.00;;;20.50;98.60;;;;;;4941011;29;20050;-73
2022/06/13 06:00:26;;;;;;;0.00;0.00;;;20.70;97.90;;;;;;4945356;29;20291;-73
2022/06/13 06:02:53;;;;;;;0.00;0.00;;;20.80;97.40;;;;;;4946325;29;20094;-74
2022/06/13 06:05:18;;;;;;;0.00;0.00;;;21.00;97.80;;;;;;4951872;29;20122;-74
2022/06/13 06:07:44;;;;;;;0.00;0.00;;;21.10;98.30;;;;;;4945347;29;20038;-73
2022/06/13 06:10:18;;;;;;;0.00;0.00;;;21.30;97.50;;;;;;4946089;29;20019;-74
2022/06/13 06:12:44;;;;;;;0.00;0.00;;;21.40;97.60;;;;;;4940899;29;20050;-74
2022/06/13 06:15:10;;;;;;;0.00;0.00;;;21.40;96.50;;;;;;4922754;29;20031;-74
2022/06/13 06:17:36;;;;;;;0.00;0.00;;;21.50;96.80;;;;;;4941659;29;20024;-74
2022/06/13 06:20:02;;;;;;;0.00;0.00;;;21.50;96.60;;;;;;4937551;29;20098;-75
2022/06/13 06:22:28;;;;;;;0.00;0.00;;;21.50;96.30;;;;;;4946234;29;20382;-73
2022/06/13 06:24:53;;;;;;;0.00;0.00;;;21.60;95.70;;;;;;4947764;29;20023;-73
2022/06/13 06:27:19;;;;;;;0.00;0.00;;;21.60;95.70;;;;;;4939605;29;20095;-74
2022/06/13 06:29:45;;;;;;;0.00;0.00;;;21.60;96.10;;;;;;4948070;29;20027;-73
2022/06/13 06:32:10;;;;;;;0.00;0.00;;;21.70;96.00;;;;;;4951404;29;20027;-73
2022/06/13 06:34:36;;;;;;;0.00;0.00;;;21.70;96.60;;;;;;4948827;29;20032;-73
2022/06/13 06:37:02;;;;;;;0.00;0.00;;;21.80;96.00;;;;;;4945334;28;20064;-73
2022/06/13 06:39:28;;;;;;;0.00;0.00;;;21.80;96.00;;;;;;4953265;29;20313;-75
2022/06/13 06:41:53;;;;;;;0.00;0.00;;;21.70;95.90;;;;;;4952336;29;20023;-77
2022/06/13 06:44:19;;;;;;;0.00;0.00;;;21.70;96.30;;;;;;4949459;29;20061;-74
2022/06/13 06:46:44;;;;;;;0.00;0.00;;;21.70;96.70;;;;;;4945459;28;20041;-76
2022/06/13 06:49:10;;;;;;;0.00;0.00;;;21.60;96.00;;;;;;4948765;29;20059;-73
2022/06/13 06:51:36;;;;;;;0.00;0.00;;;21.50;96.20;;;;;;4945024;28;20023;-77
2022/06/13 07:02:14;;;;;;;0.00;0.00;;;21.10;97.50;;;;;;4943801;29;20062;-74
2022/06/13 07:04:40;;;;;;;0.00;0.00;;;21.00;97.10;;;;;;4930750;29;20043;-73
2022/06/13 07:07:06;;;;;;;0.00;0.00;;;20.90;97.10;;;;;;4948831;29;20047;-74
2022/06/13 07:09:31;;;;;;;0.00;0.00;;;20.80;97.20;;;;;;4919845;29;20256;-73
2022/06/13 07:11:57;;;;;;;0.00;0.00;;;20.80;97.90;;;;;;4947338;29;20322;-74
2022/06/13 07:14:31;;;;;;;0.00;0.00;;;20.80;98.20;;;;;;4951118;29;20031;-74
2022/06/13 07:16:59;;;;;;;0.00;0.00;;;20.90;98.30;;;;;;4942213;29;20027;-74
2022/06/13 07:19:25;;;;;;;0.00;0.00;;;21.00;98.10;;;;;;4941731;29;20226;-77
2022/06/13 07:21:51;;;;;;;0.00;0.00;;;21.00;98.10;;;;;;4930224;29;20078;-71
2022/06/13 07:24:16;;;;;;;0.00;0.00;;;21.10;98.30;;;;;;4943313;28;20119;-74
2022/06/13 07:26:43;;;;;;;0.00;0.00;;;21.10;97.50;;;;;;4927515;28;20177;-73
2022/06/13 07:29:09;;;;;;;0.00;0.00;;;21.20;97.50;;;;;;4949273;29;20210;-79
2022/06/13 07:31:48;;;;;;;0.00;0.00;;;21.20;96.40;;;;;;4952272;28;20079;-74
2022/06/13 07:34:22;;;;;;;0.00;0.00;;;21.20;96.70;;;;;;4945757;29;20018;-73
2022/06/13 07:36:51;;;;;;;0.00;0.00;;;21.20;96.80;;;;;;4941064;28;20027;-80
2022/06/13 07:39:17;;;;;;;0.00;0.00;;;21.30;96.90;;;;;;4940819;29;20027;-76
2022/06/13 07:41:44;;;;;;;0.00;0.00;;;21.30;97.10;;;;;;4942520;28;20215;-70
2022/06/13 07:44:39;;;;;;;0.00;0.00;;;21.30;97.20;;;;;;4945885;28;20031;-75
2022/06/13 07:47:06;;;;;;;0.00;0.00;;;21.50;97.60;;;;;;4933261;29;20039;-73
2022/06/13 07:49:32;;;;;;;0.00;0.00;;;21.50;97.80;;;;;;4949436;28;20206;-78
2022/06/13 07:51:58;;;;;;;0.00;0.00;;;21.50;98.10;;;;;;4948138;29;20354;-72
2022/06/13 07:54:24;;;;;;;0.00;0.00;;;21.60;97.80;;;;;;4948991;29;20031;-73
2022/06/13 07:56:49;;;;;;;0.00;0.00;;;21.70;98.50;;;;;;4940533;29;20038;-76
2022/06/13 07:59:21;;;;;;;0.00;0.00;;;21.90;98.40;;;;;;4950117;29;20361;-73
2022/06/13 08:01:46;;;;;;;0.00;0.00;;;22.20;98.60;;;;;;4949414;29;20031;-73
2022/06/13 08:04:12;;;;;;;0.00;0.00;;;22.60;97.10;;;;;;4942298;29;20056;-74
2022/06/13 08:06:41;;;;;;;0.00;0.00;;;23.10;97.00;;;;;;4933237;29;20034;-78
2022/06/13 08:09:08;;;;;;;0.00;0.00;;;23.60;96.50;;;;;;4931404;29;20060;-74
2022/06/13 08:11:37;;;;;;;0.00;0.00;;;24.30;95.60;;;;;;4923679;29;20759;-74
2022/06/13 08:14:06;;;;;;;0.00;0.00;;;24.80;94.00;;;;;;4927172;29;20279;-75
2022/06/13 08:16:33;;;;;;;0.00;0.00;;;24.80;93.00;;;;;;4927238;29;20436;-74
2022/06/13 08:18:59;;;;;;;0.00;0.00;;;24.80;93.50;;;;;;4925851;29;20307;-79
2022/06/13 08:21:25;;;;;;;0.00;0.00;;;24.60;92.30;;;;;;4929371;29;20574;-73
2022/06/13 08:23:52;;;;;;;0.00;0.00;;;24.50;92.60;;;;;;4925280;29;20023;-78
2022/06/13 08:26:18;;;;;;;0.00;0.00;;;24.40;92.30;;;;;;4919730;29;20223;-75
2022/06/13 08:28:44;;;;;;;0.00;0.00;;;24.70;93.40;;;;;;4925950;29;20092;-76
2022/06/13 08:31:15;;;;;;;0.00;0.00;;;25.20;93.40;;;;;;4912136;29;20032;-78
2022/06/13 08:33:40;;;;;;;0.00;0.00;;;26.10;93.90;;;;;;4911024;29;20023;-76
2022/06/13 08:36:07;;;;;;;0.00;0.00;;;27.10;93.10;;;;;;4927813;29;20061;-77
2022/06/13 08:38:33;;;;;;;0.00;0.00;;;27.40;88.40;;;;;;4928572;29;20063;-77
2022/06/13 08:41:07;;;;;;;0.00;0.00;;;27.60;88.80;;;;;;4920872;29;20027;-80
2022/06/13 08:43:36;;;;;;;0.00;0.00;;;28.10;88.50;;;;;;4929256;29;20265;-75
2022/06/13 08:46:16;;;;;;;0.00;0.00;;;29.10;88.50;;;;;;4924462;29;20022;-76
2022/06/13 08:48:46;;;;;;;0.00;0.00;;;30.10;82.60;;;;;;4909818;29;20237;-76
2022/06/13 08:51:18;;;;;;;0.00;0.00;;;30.70;79.90;;;;;;4925667;29;20110;-76
2022/06/13 08:53:57;;;;;;;0.00;0.00;;;30.90;77.60;;;;;;4928255;29;20042;-77
2022/06/13 08:56:26;;;;;;;0.00;0.00;;;30.70;75.80;;;;;;4922477;29;20068;-77
2022/06/13 08:59:22;;;;;;;0.00;0.00;;;30.60;74.90;;;;;;4928375;29;20031;-77
2022/06/13 09:01:52;;;;;;;0.00;0.00;;;30.60;75.30;;;;;;4928018;29;20682;-75
2022/06/13 09:04:55;;;;;;;0.00;0.00;;;30.30;75.80;;;;;;4930809;29;20508;-81
2022/06/13 09:07:29;;;;;;;0.00;0.00;;;30.50;77.70;;;;;;4926583;29;20019;-81
2022/06/13 09:10:16;;;;;;;0.00;0.00;;;30.40;75.20;;;;;;4907354;29;20059;-81
2022/06/13 09:13:00;;;;;;;0.00;0.00;;;30.40;74.90;;;;;;4911836;29;20032;-81
2022/06/13 09:15:42;;;;;;;0.00;0.00;;;30.00;76.00;;;;;;4918157;29;20083;-81
2022/06/13 09:18:22;;;;;;;0.00;0.00;;;30.40;75.20;;;;;;4922424;29;20207;-81
2022/06/13 09:20:53;;;;;;;0.00;0.00;;;30.70;75.20;;;;;;4925352;29;20036;-78
2022/06/13 09:23:25;;;;;;;0.00;0.00;;;30.70;73.00;;;;;;4929257;29;20032;-82
2022/06/13 09:26:02;;;;;;;0.00;0.00;;;30.80;73.10;;;;;;4926323;29;20024;-81
2022/06/13 09:28:31;;;;;;;0.00;0.00;;;31.10;71.10;;;;;;4928203;29;20047;-80
2022/06/13 09:31:08;;;;;;;0.00;0.00;;;31.30;70.20;;;;;;4936045;29;20287;-79
2022/06/13 09:33:37;;;;;;;0.00;0.00;;;31.50;69.10;;;;;;4912144;29;20196;-82
2022/06/13 09:36:19;;;;;;;0.00;0.00;;;31.90;70.10;;;;;;4931340;29;20023;-80
2022/06/13 09:38:56;;;;;;;0.00;0.00;;;32.50;68.60;;;;;;4920149;29;20354;-79
2022/06/13 09:41:49;;;;;;;0.00;0.00;;;32.90;66.50;;;;;;4928766;29;20255;-80
2022/06/13 09:44:18;;;;;;;0.00;0.00;;;33.40;65.00;;;;;;4929482;29;20046;-80
2022/06/13 09:47:03;;;;;;;0.00;0.00;;;34.00;65.90;;;;;;4911929;29;20051;-81
2022/06/13 09:49:40;;;;;;;0.00;0.00;;;34.50;61.60;;;;;;4927976;29;20038;-82
2022/06/13 09:52:26;;;;;;;0.00;0.00;;;34.60;59.60;;;;;;4929818;29;20034;-83
2022/06/13 09:55:03;;;;;;;0.00;0.00;;;35.00;60.30;;;;;;4928020;29;20060;-81
2022/06/13 09:57:44;;;;;;;0.00;0.00;;;35.20;58.70;;;;;;4911667;29;20322;-79
2022/06/13 10:00:33;;;;;;;0.00;0.00;;;35.30;58.90;;;;;;4911114;29;20079;-80
2022/06/13 10:03:29;;;;;;;0.00;0.00;;;35.20;58.30;;;;;;4927832;29;20251;-79
2022/06/13 10:06:20;;;;;;;0.00;0.00;;;35.30;58.10;;;;;;4927181;29;20043;-82
2022/06/13 10:09:08;;;;;;;0.00;0.00;;;35.50;58.20;;;;;;4919564;29;20038;-79
2022/06/13 10:11:34;;;;;;;0.00;0.00;;;36.20;56.70;;;;;;4926399;29;20295;-84
2022/06/13 10:14:47;;;;;;;0.00;0.00;;;36.50;55.00;;;;;;4910437;29;20094;-83
2022/06/13 10:17:22;;;;;;;0.00;0.00;;;36.60;54.60;;;;;;4884988;29;20034;-81
2022/06/13 10:20:03;;;;;;;0.00;0.00;;;37.00;55.50;;;;;;4929413;29;20087;-80
2022/06/13 10:22:41;;;;;;;0.00;0.00;;;37.40;54.00;;;;;;4924957;29;20035;-79
2022/06/13 10:25:28;;;;;;;0.00;0.00;;;37.70;54.30;;;;;;4929235;29;20080;-80
2022/06/13 10:28:20;;;;;;;0.00;0.00;;;37.60;53.10;;;;;;4929430;29;20378;-78
2022/06/13 10:31:07;;;;;;;0.00;0.00;;;38.00;52.80;;;;;;4929443;29;20031;-81
2022/06/13 10:33:42;;;;;;;0.00;0.00;;;38.10;52.50;;;;;;4926036;29;20031;-79
2022/06/13 10:36:33;;;;;;;0.00;0.00;;;37.90;53.10;;;;;;4928919;29;20020;-81
2022/06/13 10:39:10;;;;;;;0.00;0.00;;;38.00;52.20;;;;;;4918304;29;20048;-79
2022/06/13 10:41:44;;;;;;;0.00;0.00;;;38.10;52.50;;;;;;4928967;29;20047;-79
2022/06/13 10:44:12;;;;;;;0.00;0.00;;;38.50;51.00;;;;;;4926980;29;20346;-79
2022/06/13 10:46:43;;;;;;;0.00;0.00;;;38.70;50.60;;;;;;4928702;29;20026;-83
2022/06/13 10:49:22;;;;;;;0.00;0.00;;;38.50;50.40;;;;;;4931534;29;20028;-80
2022/06/13 10:51:48;;;;;;;0.00;0.00;;;38.60;50.10;;;;;;4931149;29;20050;-79
2022/06/13 10:54:20;;;;;;;0.00;0.00;;;38.60;50.30;;;;;;4930738;29;20024;-78
2022/06/13 10:56:53;;;;;;;0.00;0.00;;;38.70;50.20;;;;;;4910724;29;20028;-78
2022/06/13 10:59:28;;;;;;;0.00;0.00;;;39.00;49.10;;;;;;4928796;29;20027;-79
2022/06/13 11:02:16;;;;;;;0.00;0.00;;;38.80;50.90;;;;;;4924841;29;20036;-79
2022/06/13 11:04:42;;;;;;;0.00;0.00;;;38.50;49.20;;;;;;4925200;29;20063;-78
2022/06/13 11:07:16;;;;;;;0.00;0.00;;;38.10;49.80;;;;;;4947123;29;20140;-84
2022/06/13 11:09:48;;;;;;;0.00;0.00;;;37.80;49.80;;;;;;4931140;29;20298;-79
2022/06/13 11:12:28;;;;;;;0.00;0.00;;;37.60;50.00;;;;;;4947673;29;20358;-80
2022/06/13 11:23:44;;;;;;;0.00;0.00;;;37.40;50.20;;;;;;4948493;29;20043;-81
2022/06/13 11:27:39;;;;;;;0.00;0.00;;;37.10;49.00;;;;;;4951910;29;20035;-80
2022/06/13 11:28:56;;;;;;;0.00;0.00;;;36.50;50.40;;;;;;4950513;28;20440;-79
2022/06/13 11:31:25;;;;;;;0.00;0.00;;;35.60;50.80;;;;;;4954342;28;20094;-79
2022/06/13 11:33:53;;;;;;;0.00;0.00;;;34.90;52.60;;;;;;4932214;29;20020;-80
2022/06/13 11:36:27;;;;;;;0.00;0.00;;;34.30;53.00;;;;;;4933321;29;20027;-83
2022/06/13 11:39:01;;;;;;;0.00;0.00;;;33.60;54.00;;;;;;4942042;29;20031;-79
2022/06/13 11:41:41;;;;;;;0.00;0.00;;;32.80;55.00;;;;;;4942614;29;20219;-80
2022/06/13 11:44:25;;;;;;;0.00;0.00;;;32.20;56.20;;;;;;4947566;29;20099;-79
2022/06/13 11:47:01;;;;;;;0.00;0.00;;;31.50;57.70;;;;;;4951726;29;20027;-80
2022/06/13 11:49:33;;;;;;;0.00;0.00;;;31.00;59.50;;;;;;4936076;29;20242;-78
2022/06/13 11:52:07;;;;;;;0.00;0.00;;;30.70;58.60;;;;;;4940781;29;20023;-81
2022/06/13 11:54:40;;;;;;;0.00;0.00;;;30.30;59.70;;;;;;4952182;29;20250;-79
2022/06/13 11:57:17;;;;;;;0.00;0.00;;;29.90;60.70;;;;;;4951261;29;20114;-78
2022/06/13 12:00:01;;;;;;;0.00;0.00;;;29.50;61.90;;;;;;4932224;29;20219;-78
2022/06/13 12:02:41;;;;;;;0.00;0.00;;;29.20;63.30;;;;;;4934511;29;20059;-79
2022/06/13 12:05:31;;;;;;;0.00;0.00;;;29.00;63.90;;;;;;4941774;29;20044;-82
2022/06/13 12:08:26;;;;;;;0.00;0.00;;;28.80;63.20;;;;;;4931735;29;20029;-79
2022/06/13 12:11:00;;;;;;;0.00;0.00;;;28.50;64.40;;;;;;4914374;29;20039;-78
2022/06/13 12:13:28;;;;;;;0.00;0.00;;;28.30;64.60;;;;;;4929771;29;20023;-79
2022/06/13 12:16:13;;;;;;;;;;;28.20;65.10;;;;;;4933065;29;20039;-79
2022/06/13 12:19:06;;;;;;;0.00;0.00;;;28.10;65.80;;;;;;4916186;29;19906;-79
2022/06/13 12:21:46;;;;;;;0.00;0.00;;;28.00;66.70;;;;;;4922007;29;20103;-83
2022/06/13 12:24:34;;;;;;;0.00;0.00;;;27.90;65.70;;;;;;4922045;29;20031;-79
2022/06/13 12:27:11;;;;;;;0.00;0.00;;;27.70;67.10;;;;;;4931838;29;20115;-78
2022/06/13 12:30:07;;;;;;;0.00;0.00;;;27.70;66.80;;;;;;4932810;29;20107;-85
2022/06/13 12:32:45;;;;;;;0.00;0.00;;;27.60;69.20;;;;;;4922162;29;20043;-78
2022/06/13 12:35:37;;;;;;;0.00;0.00;;;27.60;68.80;;;;;;4931416;29;20019;-84
2022/06/13 12:38:08;;;;;;;0.00;0.00;;;27.60;68.80;;;;;;4933049;29;20038;-78
2022/06/13 12:41:04;;;;;;;0.00;0.00;;;27.50;70.10;;;;;;4931390;29;20036;-78
2022/06/13 12:43:51;;;;;;;0.00;0.00;;;27.40;69.00;;;;;;4935499;29;20043;-78
2022/06/13 12:46:33;;;;;;;0.00;0.00;;;27.20;69.00;;;;;;4929700;29;20111;-78
2022/06/13 12:49:27;;;;;;;0.00;0.00;;;27.00;69.50;;;;;;4931312;29;20020;-83
2022/06/13 12:53:01;;;;;;;0.00;0.00;;;27.00;69.60;;;;;;4931105;29;20091;-78
2022/06/13 12:55:35;;;;;;;0.00;0.00;;;26.80;69.70;;;;;;4836535;29;20038;-77
2022/06/13 12:58:09;;;;;;;0.00;0.00;;;26.40;70.60;;;;;;4914723;29;20047;-74
2022/06/13 13:00:35;;;;;;;0.00;0.00;;;26.30;71.70;;;;;;4930964;29;20124;-80
2022/06/13 13:03:12;;;;;;;0.00;0.00;;;26.20;73.60;;;;;;4920471;29;20110;-72
2022/06/13 13:06:21;;;;;;;0.00;0.00;;;25.90;74.50;;;;;;4922466;29;20334;-75
2022/06/13 13:09:04;;;;;;;0.00;0.00;;;25.80;74.40;;;;;;4879537;29;20415;-74
2022/06/13 13:12:10;;;;;;;0.00;0.00;;;25.70;75.20;;;;;;4879846;29;20029;-74
2022/06/13 13:15:05;;;;;;;0.00;0.00;;;25.50;75.70;;;;;;4864637;29;20032;-77
2022/06/13 13:17:33;;;;;;;0.00;0.00;;;25.40;76.50;;;;;;4879810;29;20248;-74
2022/06/13 13:20:18;;;;;;;0.00;0.00;;;25.40;75.60;;;;;;4863985;29;20092;-72
2022/06/13 13:23:10;;;;;;;0.00;0.00;;;25.30;75.40;;;;;;4879449;29;20040;-71
2022/06/13 13:25:50;;;;;;;0.00;0.00;;;25.20;74.40;;;;;;4876527;29;20285;-73
2022/06/13 13:28:40;;;;;;;0.00;0.00;;;25.10;74.60;;;;;;4863803;29;20282;-73
2022/06/13 13:31:30;;;;;;;0.00;0.00;;;25.10;75.60;;;;;;4880097;29;20040;-72
2022/06/13 13:34:16;;;;;;;0.00;0.00;;;25.00;76.20;;;;;;4879221;29;20701;-72
2022/06/13 13:37:05;;;;;;;0.00;0.00;;;25.10;76.90;;;;;;4863744;29;20029;-72
2022/06/13 13:39:44;;;;;;;0.00;0.00;;;25.20;76.60;;;;;;4879096;29;20043;-77
2022/06/13 13:42:18;;;;;;;0.00;0.00;;;25.30;77.50;;;;;;4879532;29;20154;-74
2022/06/13 13:45:13;;;;;;;0.00;0.00;;;25.40;76.30;;;;;;4889044;29;20035;-73
2022/06/13 13:47:40;;;;;;;0.00;0.00;;;25.30;77.60;;;;;;4940294;29;20057;-79
2022/06/13 13:50:15;;;;;;;0.00;0.00;;;25.20;77.50;;;;;;4937758;29;20099;-72